createdAt,value
2018-11-05T00:00:28.226Z,97880.28
2018-11-05T00:02:58.118Z,97872.97
2018-11-05T00:05:27.995Z,97870.20
2018-11-05T00:07:57.994Z,97863.29
2018-11-05T00:10:27.850Z,97864.67
2018-11-05T00:12:57.631Z,97866.81
2018-11-05T00:15:27.433Z,97863.55
2018-11-05T00:17:57.330Z,97871.07
2018-11-05T00:20:27.163Z,97869.66
2018-11-05T00:22:57.026Z,97866.42
2018-11-05T00:25:26.958Z,97869.45
2018-11-05T00:27:56.740Z,97869.05
2018-11-05T00:30:26.610Z,97877.00
2018-11-05T00:32:56.450Z,97864.52
2018-11-05T00:35:26.268Z,97860.17
2018-11-05T00:37:56.134Z,97854.52
2018-11-05T00:40:25.966Z,97850.96
2018-11-05T00:42:55.711Z,97847.78
2018-11-05T00:45:25.643Z,97844.28
2018-11-05T00:47:55.466Z,97837.73
2018-11-05T00:50:25.254Z,97841.92
2018-11-05T00:52:55.067Z,97850.05
2018-11-05T00:55:25.008Z,97840.16
2018-11-05T00:57:54.847Z,97847.36
2018-11-05T01:00:24.737Z,97853.02
2018-11-05T01:02:54.630Z,97848.21
2018-11-05T01:05:24.406Z,97843.63
2018-11-05T01:07:54.191Z,97837.44
2018-11-05T01:10:24.059Z,97842.55
2018-11-05T01:12:53.779Z,97837.98
2018-11-05T01:15:23.544Z,97834.04
2018-11-05T01:17:53.382Z,97832.45
2018-11-05T01:20:23.143Z,97831.16
2018-11-05T01:22:52.924Z,97828.90
2018-11-05T01:25:22.786Z,97825.29
2018-11-05T01:27:52.645Z,97816.84
2018-11-05T01:30:22.446Z,97810.94
2018-11-05T01:32:52.186Z,97812.50
2018-11-05T01:35:21.931Z,97716.19
2018-11-05T01:37:51.842Z,97812.50
2018-11-05T01:40:21.766Z,97806.72
2018-11-05T01:42:51.508Z,97799.50
2018-11-05T01:45:21.242Z,97787.50
2018-11-05T01:47:51.098Z,97785.72
2018-11-05T01:50:20.911Z,97793.65
2018-11-05T01:52:50.714Z,97795.39
2018-11-05T01:55:20.582Z,97788.75
2018-11-05T01:57:50.362Z,97780.80
2018-11-05T02:00:20.234Z,97775.53
2018-11-05T02:02:50.158Z,97773.30
2018-11-05T02:05:20.054Z,97781.88
2018-11-05T02:07:49.879Z,97703.59
2018-11-05T02:10:20.012Z,97778.78
2018-11-05T02:12:49.863Z,97772.20
2018-11-05T02:15:19.650Z,97779.23
2018-11-05T02:17:49.501Z,97761.52
2018-11-05T02:20:19.259Z,97768.88
2018-11-05T02:22:49.058Z,97761.42
2018-11-05T02:25:18.882Z,97761.18
2018-11-05T02:27:48.663Z,97758.09
2018-11-05T02:30:19.364Z,97771.71
2018-11-05T02:32:49.117Z,97776.97
2018-11-05T02:35:19.371Z,97770.42
2018-11-05T02:37:49.239Z,97760.21
2018-11-05T02:40:20.606Z,97770.16
2018-11-05T02:42:51.025Z,97773.25
2018-11-05T02:45:21.413Z,97763.16
2018-11-05T02:47:51.311Z,97766.61
2018-11-05T02:50:21.111Z,97767.25
2018-11-05T02:52:50.982Z,97769.88
2018-11-05T02:55:20.751Z,97767.80
2018-11-05T02:57:50.576Z,97769.12
2018-11-05T03:00:20.718Z,97771.75
2018-11-05T03:02:50.498Z,97769.09
2018-11-05T03:05:20.874Z,97772.27
2018-11-05T03:07:50.764Z,97778.08
2018-11-05T03:10:20.622Z,97768.42
2018-11-05T03:12:50.474Z,97768.56
2018-11-05T03:15:20.366Z,97773.98
2018-11-05T03:17:50.266Z,97772.33
2018-11-05T03:20:20.036Z,97775.05
2018-11-05T03:22:49.846Z,97778.14
2018-11-05T03:25:19.612Z,97446.78
2018-11-05T03:27:49.372Z,97771.41
2018-11-05T03:30:19.867Z,97780.47
2018-11-05T03:32:49.749Z,97772.52
2018-11-05T03:35:19.508Z,97773.70
2018-11-05T03:37:49.315Z,97780.70
2018-11-05T03:40:19.087Z,97773.70
2018-11-05T03:42:48.857Z,97778.08
2018-11-05T03:45:18.654Z,97768.44
2018-11-05T03:47:48.582Z,97776.80
2018-11-05T03:50:19.250Z,97774.28
2018-11-05T03:52:49.266Z,97771.72
2018-11-05T03:55:19.360Z,97781.33
2018-11-05T03:57:49.291Z,97771.41
2018-11-05T04:00:19.242Z,97776.80
2018-11-05T04:02:49.107Z,97782.91
2018-11-05T04:05:19.017Z,97778.51
2018-11-05T04:07:48.846Z,97785.88
2018-11-05T04:10:18.671Z,97784.90
2018-11-05T04:12:48.519Z,97784.86
2018-11-05T04:15:18.501Z,97794.53
2018-11-05T04:17:48.337Z,97798.52
2018-11-05T04:20:18.162Z,97810.33
2018-11-05T04:22:48.023Z,97810.14
2018-11-05T04:25:17.774Z,97798.12
2018-11-05T04:27:47.577Z,97800.29
2018-11-05T04:30:17.438Z,97798.82
2018-11-05T04:32:47.271Z,97799.34
2018-11-05T04:35:17.079Z,97795.80
2018-11-05T04:37:46.939Z,97793.66
2018-11-05T04:40:16.759Z,97798.06
2018-11-05T04:42:46.569Z,97795.73
2018-11-05T04:45:16.424Z,97795.61
2018-11-05T04:47:46.227Z,97804.05
2018-11-05T04:50:16.108Z,97804.39
2018-11-05T04:52:45.918Z,97800.75
2018-11-05T04:55:15.714Z,97798.42
2018-11-05T04:57:45.515Z,97803.78
2018-11-05T05:00:17.806Z,97801.55
2018-11-05T05:02:47.635Z,97802.92
2018-11-05T05:05:17.715Z,97803.08
2018-11-05T05:07:47.630Z,97807.05
2018-11-05T05:10:17.485Z,97813.38
2018-11-05T05:12:47.345Z,97801.98
2018-11-05T05:15:17.152Z,97804.70
2018-11-05T05:17:46.938Z,97804.82
2018-11-05T05:20:17.366Z,97806.41
2018-11-05T05:22:47.392Z,97814.30
2018-11-05T05:25:17.070Z,97809.20
2018-11-05T05:27:46.918Z,97811.40
2018-11-05T05:30:18.008Z,97807.94
2018-11-05T05:32:48.775Z,97815.95
2018-11-05T05:35:19.586Z,97812.09
2018-11-05T05:37:49.533Z,97818.19
2018-11-05T05:40:19.312Z,97815.59
2018-11-05T05:42:49.166Z,97813.59
2018-11-05T05:45:19.018Z,97814.84
2018-11-05T05:47:48.966Z,97817.36
2018-11-05T05:50:18.881Z,97818.98
2018-11-05T05:52:49.751Z,97819.84
2018-11-05T05:55:19.631Z,97820.45
2018-11-05T05:57:49.466Z,97817.88
2018-11-05T06:00:19.623Z,97824.64
2018-11-05T06:02:49.534Z,97821.22
2018-11-05T06:05:19.417Z,97824.85
2018-11-05T06:07:49.319Z,97829.72
2018-11-05T06:10:19.150Z,97826.94
2018-11-05T06:12:49.014Z,97830.91
2018-11-05T06:15:18.870Z,97832.02
2018-11-05T06:17:48.710Z,97832.45
2018-11-05T06:20:19.623Z,97835.30
2018-11-05T06:22:50.188Z,97839.91
2018-11-05T06:25:19.912Z,97833.95
2018-11-05T06:27:49.754Z,97834.98
2018-11-05T06:30:20.860Z,97838.38
2018-11-05T06:32:51.589Z,97842.99
2018-11-05T06:35:21.881Z,97831.71
2018-11-05T06:37:51.720Z,97831.03
2018-11-05T06:40:21.763Z,97827.57
2018-11-05T06:42:51.723Z,97830.44
2018-11-05T06:45:22.547Z,97833.53
2018-11-05T06:47:52.393Z,97834.98
2018-11-05T06:50:23.768Z,97831.36
2018-11-05T06:52:53.725Z,97830.96
2018-11-05T06:55:23.525Z,97833.83
2018-11-05T06:57:53.404Z,97839.78
2018-11-05T07:00:24.586Z,97836.06
2018-11-05T07:02:54.414Z,97842.81
2018-11-05T07:05:24.275Z,97839.84
2018-11-05T07:07:54.177Z,97832.11
2018-11-05T07:10:24.058Z,97835.72
2018-11-05T07:12:53.854Z,97842.47
2018-11-05T07:15:23.707Z,97841.67
2018-11-05T07:17:53.526Z,97831.34
2018-11-05T07:20:23.420Z,97836.58
2018-11-05T07:22:53.314Z,97846.69
2018-11-05T07:25:23.128Z,97759.69
2018-11-05T07:27:53.073Z,97843.63
2018-11-05T07:30:24.044Z,97855.47
2018-11-05T07:32:55.056Z,97754.92
2018-11-05T07:35:24.938Z,97850.60
2018-11-05T07:37:54.823Z,97853.27
2018-11-05T07:40:24.748Z,97849.28
2018-11-05T07:42:54.543Z,97844.87
2018-11-05T07:45:25.049Z,97854.16
2018-11-05T07:47:54.961Z,97854.42
2018-11-05T07:50:24.952Z,97855.02
2018-11-05T07:52:54.658Z,97858.97
2018-11-05T07:55:24.502Z,97854.59
2018-11-05T07:57:54.395Z,97857.13
2018-11-05T08:00:29.394Z,97854.36
2018-11-05T08:02:59.413Z,97853.94
2018-11-05T08:05:29.146Z,97849.76
2018-11-05T08:07:59.035Z,97847.09
2018-11-05T08:10:29.022Z,97841.11
2018-11-05T08:12:58.819Z,97847.78
2018-11-05T08:15:28.716Z,97844.28
2018-11-05T08:17:58.648Z,97665.44
2018-11-05T08:20:28.495Z,97848.15
2018-11-05T08:22:58.318Z,97848.65
2018-11-05T08:25:28.181Z,97851.05
2018-11-05T08:27:58.007Z,97849.27
2018-11-05T08:30:28.025Z,97844.29
2018-11-05T08:32:57.892Z,97848.01
2018-11-05T08:35:27.798Z,97848.86
2018-11-05T08:37:57.640Z,97851.89
2018-11-05T08:40:28.166Z,97849.72
2018-11-05T08:42:58.311Z,97855.31
2018-11-05T08:45:29.475Z,97852.41
2018-11-05T08:47:59.359Z,97854.05
2018-11-05T08:50:29.399Z,97849.00
2018-11-05T08:52:59.214Z,97851.10
2018-11-05T08:55:29.152Z,97854.92
2018-11-05T08:57:58.970Z,97860.80
2018-11-05T09:00:33.871Z,97863.38
2018-11-05T09:03:03.761Z,97864.23
2018-11-05T09:05:33.665Z,97871.64
2018-11-05T09:08:03.558Z,97838.56
2018-11-05T09:10:33.517Z,97870.11
2018-11-05T09:13:03.388Z,97870.82
2018-11-05T09:15:33.315Z,97875.59
2018-11-05T09:18:03.078Z,97876.39
2018-11-05T09:20:33.034Z,97880.48
2018-11-05T09:23:03.902Z,97880.92
2018-11-05T09:25:34.430Z,97880.09
2018-11-05T09:28:04.537Z,97878.81
2018-11-05T09:30:34.371Z,97880.58
2018-11-05T09:33:04.265Z,97876.25
2018-11-05T09:35:34.206Z,97872.82
2018-11-05T09:38:04.042Z,97867.78
2018-11-05T09:40:34.000Z,97877.42
2018-11-05T09:43:03.975Z,97879.80
2018-11-05T09:45:33.865Z,97879.88
2018-11-05T09:48:03.746Z,97882.30
2018-11-05T09:50:33.758Z,97880.36
2018-11-05T09:53:03.531Z,97833.12
2018-11-05T09:55:33.465Z,97787.18
2018-11-05T09:58:03.460Z,97878.58
2018-11-05T10:00:33.371Z,97872.98
2018-11-05T10:03:07.492Z,97872.52
2018-11-05T10:05:37.238Z,97869.72
2018-11-05T10:08:07.103Z,97865.80
2018-11-05T10:10:37.035Z,97858.99
2018-11-05T10:13:06.934Z,97853.78
2018-11-05T10:15:36.870Z,97855.42
2018-11-05T10:18:07.261Z,97850.63
2018-11-05T10:20:37.154Z,97853.08
2018-11-05T10:23:07.126Z,97852.69
2018-11-05T10:25:37.067Z,97851.47
2018-11-05T10:28:08.215Z,97840.33
2018-11-05T10:30:38.081Z,97838.04
2018-11-05T10:33:07.978Z,97835.59
2018-11-05T10:35:42.939Z,97841.23
2018-11-05T10:38:12.854Z,97838.05
2018-11-05T10:40:42.765Z,97830.02
2018-11-05T10:43:12.716Z,97826.39
2018-11-05T10:45:42.598Z,97833.42
2018-11-05T10:48:12.366Z,97833.89
2018-11-05T10:50:42.308Z,97829.70
2018-11-05T10:53:12.192Z,97831.53
2018-11-05T10:55:42.155Z,97819.88
2018-11-05T10:58:12.173Z,97820.50
2018-11-05T11:00:46.907Z,97818.17
2018-11-05T11:03:19.106Z,97819.64
2018-11-05T11:05:48.950Z,97815.02
2018-11-05T11:08:18.734Z,97814.92
2018-11-05T11:10:48.600Z,97813.04
2018-11-05T11:13:18.492Z,97807.31
2018-11-05T11:15:48.369Z,97810.11
2018-11-05T11:18:18.180Z,97809.05
2018-11-05T11:20:48.033Z,97802.99
2018-11-05T11:23:18.066Z,97808.75
2018-11-05T11:25:47.960Z,97802.73
2018-11-05T11:28:17.801Z,97804.23
2018-11-05T11:30:47.690Z,97801.77
2018-11-05T11:33:17.631Z,97798.34
2018-11-05T11:35:47.443Z,97800.45
2018-11-05T11:38:17.347Z,97796.95
2018-11-05T11:40:47.205Z,97798.99
2018-11-05T11:43:17.074Z,97796.14
2018-11-05T11:45:46.958Z,97735.91
2018-11-05T11:48:16.838Z,97790.74
2018-11-05T11:50:46.731Z,97790.27
2018-11-05T11:53:16.790Z,97786.00
2018-11-05T11:55:46.550Z,97784.59
2018-11-05T11:58:16.375Z,97784.98
2018-11-05T12:00:46.310Z,97778.20
2018-11-05T12:03:16.176Z,97775.01
2018-11-05T12:05:46.034Z,97767.23
2018-11-05T12:08:15.883Z,97766.30
2018-11-05T12:10:45.834Z,97762.43
2018-11-05T12:13:15.686Z,97759.27
2018-11-05T12:15:45.516Z,97764.61
2018-11-05T12:18:15.405Z,97758.24
2018-11-05T12:20:45.256Z,97766.69
2018-11-05T12:23:15.177Z,97762.03
2018-11-05T12:25:45.030Z,97761.69
2018-11-05T12:28:14.862Z,97762.06
2018-11-05T12:30:44.772Z,97762.80
2018-11-05T12:33:14.746Z,97763.70
2018-11-05T12:35:44.675Z,97762.80
2018-11-05T12:38:14.546Z,97755.65
2018-11-05T12:40:44.488Z,97762.70
2018-11-05T12:43:14.381Z,97758.13
2018-11-05T12:45:44.258Z,97757.70
2018-11-05T12:48:14.142Z,97761.94
2018-11-05T12:50:44.148Z,97764.97
2018-11-05T12:53:13.924Z,97764.59
2018-11-05T12:55:43.887Z,97758.09
2018-11-05T12:58:13.704Z,97758.44
2018-11-05T13:00:43.643Z,97755.52
2018-11-05T13:03:13.644Z,97755.98
2018-11-05T13:05:43.563Z,97765.13
2018-11-05T13:08:13.391Z,97766.55
2018-11-05T13:10:43.302Z,97763.68
2018-11-05T13:13:13.161Z,97764.53
2018-11-05T13:15:43.064Z,97763.61
2018-11-05T13:18:12.887Z,97760.50
2018-11-05T13:20:42.823Z,97760.58
2018-11-05T13:23:12.833Z,97757.16
2018-11-05T13:25:42.700Z,97757.86
2018-11-05T13:28:12.500Z,97753.89
2018-11-05T13:30:42.471Z,97724.67
2018-11-05T13:33:12.426Z,97755.67
2018-11-05T13:35:42.350Z,97745.42
2018-11-05T13:38:12.845Z,97744.84
2018-11-05T13:40:42.194Z,97747.64
2018-11-05T13:43:12.067Z,97745.55
2018-11-05T13:45:42.193Z,97741.33
2018-11-05T13:48:12.276Z,97739.62
2018-11-05T13:50:41.744Z,97741.75
2018-11-05T13:53:11.699Z,97744.92
2018-11-05T13:55:41.654Z,97744.73
2018-11-05T13:58:11.522Z,97744.19
2018-11-05T14:00:41.385Z,97746.16
2018-11-05T14:03:11.312Z,97749.41
2018-11-05T14:05:41.319Z,97750.00
2018-11-05T14:08:11.153Z,97747.62
2018-11-05T14:10:41.115Z,97747.89
2018-11-05T14:13:10.987Z,97749.22
2018-11-05T14:15:40.910Z,97746.55
2018-11-05T14:18:10.921Z,97750.05
2018-11-05T14:20:40.742Z,97748.53
2018-11-05T14:23:10.658Z,97745.83
2018-11-05T14:25:40.719Z,97747.95
2018-11-05T14:28:10.853Z,97751.45
2018-11-05T14:30:40.648Z,97749.94
2018-11-05T14:33:10.586Z,97752.96
2018-11-05T14:35:40.534Z,97750.98
2018-11-05T14:38:10.576Z,97753.03
2018-11-05T14:40:40.434Z,97751.91
2018-11-05T14:43:10.429Z,97746.31
2018-11-05T14:45:40.328Z,97743.28
2018-11-05T14:48:10.197Z,97743.86
2018-11-05T14:50:40.196Z,97743.27
2018-11-05T14:53:10.107Z,97748.27
2018-11-05T14:55:40.039Z,97752.63
2018-11-05T14:58:09.900Z,97751.59
2018-11-05T15:00:39.799Z,97754.16
2018-11-05T15:03:09.716Z,97743.41
2018-11-05T15:05:39.577Z,97746.22
2018-11-05T15:08:09.528Z,97747.22
2018-11-05T15:10:39.328Z,97745.16
2018-11-05T15:13:09.340Z,97741.98
2018-11-05T15:15:39.259Z,97740.63
2018-11-05T15:18:09.217Z,97745.30
2018-11-05T15:20:39.067Z,97744.48
2018-11-05T15:23:08.997Z,97744.63
2018-11-05T15:25:38.952Z,97740.36
2018-11-05T15:28:08.795Z,97746.35
2018-11-05T15:30:38.758Z,97753.02
2018-11-05T15:33:08.761Z,97752.94
2018-11-05T15:35:38.510Z,97751.16
2018-11-05T15:38:08.379Z,97758.50
2018-11-05T15:40:38.318Z,97762.70
2018-11-05T15:43:08.138Z,97756.90
2018-11-05T15:45:38.112Z,97766.13
2018-11-05T15:48:07.943Z,97774.14
2018-11-05T15:50:37.834Z,97765.34
2018-11-05T15:53:07.986Z,97771.53
2018-11-05T15:55:37.614Z,97769.86
2018-11-05T15:58:07.380Z,97771.53
2018-11-05T16:00:37.186Z,97772.47
2018-11-05T16:03:07.185Z,97774.75
2018-11-05T16:05:36.946Z,97776.42
2018-11-05T16:08:06.872Z,97781.23
2018-11-05T16:10:36.770Z,97782.13
2018-11-05T16:13:07.196Z,97784.28
2018-11-05T16:15:37.178Z,97787.95
2018-11-05T16:18:07.101Z,97776.48
2018-11-05T16:20:37.015Z,97788.53
2018-11-05T16:23:07.031Z,97780.94
2018-11-05T16:25:36.891Z,97783.75
2018-11-05T16:28:07.103Z,97784.75
2018-11-05T16:30:37.166Z,97789.63
2018-11-05T16:33:07.028Z,97782.18
2018-11-05T16:35:36.978Z,97786.14
2018-11-05T16:38:06.895Z,97786.62
2018-11-05T16:40:36.711Z,97786.38
2018-11-05T16:43:06.639Z,97791.36
2018-11-05T16:45:36.576Z,97796.73
2018-11-05T16:48:06.496Z,97797.66
2018-11-05T16:50:36.400Z,97794.67
2018-11-05T16:53:06.284Z,97795.64
2018-11-05T16:55:36.130Z,97774.84
2018-11-05T16:58:06.543Z,97798.87
2018-11-05T17:00:36.541Z,97797.31
2018-11-05T17:03:07.422Z,97795.41
2018-11-05T17:05:37.342Z,97801.61
2018-11-05T17:08:07.239Z,97806.41
2018-11-05T17:10:37.071Z,97804.14
2018-11-05T17:13:07.387Z,97803.30
2018-11-05T17:15:37.218Z,97801.13
2018-11-05T17:18:07.015Z,97805.41
2018-11-05T17:20:37.139Z,97809.35
2018-11-05T17:23:07.069Z,97811.92
2018-11-05T17:25:36.991Z,97804.22
2018-11-05T17:28:06.837Z,97807.70
2018-11-05T17:30:36.626Z,97806.09
2018-11-05T17:33:06.819Z,97805.64
2018-11-05T17:35:36.739Z,97803.86
2018-11-05T17:38:06.979Z,97805.93
2018-11-05T17:40:36.997Z,97798.98
2018-11-05T17:43:06.992Z,97801.98
2018-11-05T17:45:36.857Z,97805.61
2018-11-05T17:48:06.717Z,97806.79
2018-11-05T17:50:36.557Z,97814.91
2018-11-05T17:53:06.510Z,97813.59
2018-11-05T17:55:36.515Z,97755.71
2018-11-05T17:58:06.471Z,97816.69
2018-11-05T18:00:36.316Z,97812.41
2018-11-05T18:03:06.282Z,97818.14
2018-11-05T18:05:36.119Z,97827.05
2018-11-05T18:08:06.034Z,97824.55
2018-11-05T18:10:35.955Z,97827.73
2018-11-05T18:13:06.339Z,97827.80
2018-11-05T18:15:36.281Z,97846.74
2018-11-05T18:18:06.439Z,97840.09
2018-11-05T18:20:36.273Z,97842.61
2018-11-05T18:23:06.366Z,97838.50
2018-11-05T18:25:36.273Z,97842.33
2018-11-05T18:28:06.444Z,97848.30
2018-11-05T18:30:36.364Z,97845.86
2018-11-05T18:33:06.264Z,97852.13
2018-11-05T18:35:36.237Z,97850.02
2018-11-05T18:38:07.349Z,97848.30
2018-11-05T18:40:37.235Z,97849.28
2018-11-05T18:43:07.200Z,97842.84
2018-11-05T18:45:37.323Z,97843.83
2018-11-05T18:48:07.093Z,97848.88
2018-11-05T18:50:36.966Z,97851.08
2018-11-05T18:53:06.987Z,97856.77
2018-11-05T18:55:37.087Z,97855.03
2018-11-05T18:58:07.447Z,97863.75
2018-11-05T19:00:37.598Z,97858.58
2018-11-05T19:03:07.813Z,97860.41
2018-11-05T19:05:37.954Z,97853.83
2018-11-05T19:08:08.482Z,97857.72
2018-11-05T19:10:38.591Z,97865.22
2018-11-05T19:13:08.679Z,97867.50
2018-11-05T19:15:38.671Z,97869.28
2018-11-05T19:18:08.702Z,97868.05
2018-11-05T19:20:38.491Z,97868.97
2018-11-05T19:23:08.532Z,97871.08
2018-11-05T19:25:39.608Z,97865.48
2018-11-05T19:28:09.515Z,97869.37
2018-11-05T19:30:39.522Z,97869.37
2018-11-05T19:33:09.374Z,97872.05
2018-11-05T19:35:39.367Z,97870.34
2018-11-05T19:38:09.326Z,97866.42
2018-11-05T19:40:39.263Z,97870.80
2018-11-05T19:43:09.410Z,97868.91
2018-11-05T19:45:39.286Z,97875.48
2018-11-05T19:48:09.206Z,97877.31
2018-11-05T19:50:39.559Z,97883.03
2018-11-05T19:53:09.598Z,97880.09
2018-11-05T19:55:39.631Z,97892.05
2018-11-05T19:58:19.122Z,97893.84
2018-11-05T20:00:52.195Z,97893.36
2018-11-05T20:03:23.069Z,97890.95
2018-11-05T20:05:54.093Z,97888.78
2018-11-05T20:08:24.306Z,97800.78
2018-11-05T20:10:55.865Z,97887.59
2018-11-05T20:13:28.546Z,97884.44
2018-11-05T20:15:59.038Z,97887.93
2018-11-05T20:18:29.139Z,97881.67
2018-11-05T20:20:59.124Z,97885.55
2018-11-05T20:23:30.133Z,97882.98
2018-11-05T20:26:00.887Z,97879.50
2018-11-05T20:28:32.265Z,97878.98
2018-11-05T20:31:07.653Z,97888.90
2018-11-05T20:33:42.683Z,97893.05
2018-11-05T20:36:16.511Z,97885.80
2018-11-05T20:38:56.504Z,97879.69
2018-11-05T20:41:27.651Z,97891.83
2018-11-05T20:43:58.703Z,97889.35
2018-11-05T20:46:29.618Z,97885.06
2018-11-05T20:49:00.356Z,97880.09
2018-11-05T20:51:30.391Z,97883.50
2018-11-05T20:54:01.626Z,97890.08
2018-11-05T20:56:31.669Z,97850.52
2018-11-05T20:59:03.515Z,97901.00
2018-11-05T21:01:35.379Z,97895.36
2018-11-05T21:04:07.304Z,97889.64
2018-11-05T21:06:38.390Z,97881.07
2018-11-05T21:09:11.079Z,97882.78
2018-11-05T21:11:42.643Z,97880.55
2018-11-05T21:14:13.859Z,97877.01
2018-11-05T21:16:44.956Z,97876.95
2018-11-05T21:19:17.824Z,97883.78
2018-11-05T21:21:50.085Z,97878.20
2018-11-05T21:24:21.808Z,97878.58
2018-11-05T21:26:52.920Z,97882.06
2018-11-05T21:29:24.360Z,97878.41
2018-11-05T21:31:55.306Z,97886.41
2018-11-05T21:34:26.462Z,97892.78
2018-11-05T21:36:56.300Z,97884.44
2018-11-05T21:39:26.161Z,97888.78
2018-11-05T21:41:56.018Z,97886.61
2018-11-05T21:44:26.387Z,97882.27
2018-11-05T21:46:56.863Z,97889.30
2018-11-05T21:49:29.216Z,97892.73
2018-11-05T21:52:00.516Z,97891.92
2018-11-05T21:54:32.090Z,97889.76
2018-11-05T21:57:02.737Z,97884.04
2018-11-05T21:59:33.860Z,97884.55
2018-11-05T22:02:04.178Z,97880.09
2018-11-05T22:04:34.678Z,97883.52
2018-11-05T22:07:05.927Z,97887.41
2018-11-05T22:09:38.058Z,97883.47
2018-11-05T22:12:09.559Z,97888.73
2018-11-05T22:14:39.671Z,97883.92
2018-11-05T22:17:10.721Z,97885.87
2018-11-05T22:19:44.099Z,97883.23
2018-11-05T22:22:14.209Z,97881.01
2018-11-05T22:24:44.815Z,97880.84
2018-11-05T22:27:15.243Z,97876.55
2018-11-05T22:29:46.525Z,97875.35
2018-11-05T22:32:17.437Z,97881.55
2018-11-05T22:34:48.993Z,97880.18
2018-11-05T22:37:19.176Z,97880.16
2018-11-05T22:39:50.448Z,97877.09
2018-11-05T22:42:21.295Z,97874.04
2018-11-05T22:44:52.322Z,97870.95
2018-11-05T22:47:22.571Z,97871.75
2018-11-05T22:49:55.127Z,97875.64
2018-11-05T22:52:25.671Z,97878.72
2018-11-05T22:54:56.580Z,97884.13
2018-11-05T22:57:26.728Z,97883.72
2018-11-05T22:59:59.509Z,97882.78
2018-11-05T23:02:30.921Z,97882.34
2018-11-05T23:05:02.911Z,97882.33
2018-11-05T23:07:33.835Z,97879.70
2018-11-05T23:10:05.802Z,97876.23
2018-11-05T23:12:36.462Z,97875.30
2018-11-05T23:15:07.443Z,97877.35
2018-11-05T23:17:37.504Z,97871.64
2018-11-05T23:20:09.321Z,97870.78
2018-11-05T23:22:40.064Z,97872.72
2018-11-05T23:25:10.883Z,97870.52
2018-11-05T23:27:40.877Z,97867.86
2018-11-05T23:30:13.751Z,97872.61
2018-11-05T23:32:44.937Z,97872.15
2018-11-05T23:35:16.542Z,97874.32
2018-11-05T23:37:47.152Z,97864.17
2018-11-05T23:40:17.709Z,97869.44
2018-11-05T23:42:48.806Z,97864.64
2018-11-05T23:45:19.179Z,97862.86
2018-11-05T23:47:49.202Z,97863.32
2018-11-05T23:50:19.605Z,97865.52
2018-11-05T23:52:49.777Z,97861.48
2018-11-05T23:55:20.789Z,97861.89
2018-11-05T23:57:50.829Z,97866.23
